Time;durP1;ratioP1;P1;durP2;ratioP2;P2;SDS_P1;SDS_P2;PMS_P1;PMS_P2;Temp;Humidity;BMP_temperature;BMP_pressure;BME280_temperature;BME280_humidity;BME280_pressure;Samples;Min_cycle;Max_cycle;Signal;HPM_P1;HPM_P2
2022/03/16 00:00:15;;;;;;;24.65;20.25;;;;;;;8.95;79.87;100658.13;1084533;54;20042;-78
2022/03/16 00:01:18;;;;;;;26.30;21.38;;;;;;;8.90;79.93;100662.00;1084394;54;20065;-77
2022/03/16 00:02:22;;;;;;;28.58;23.45;;;;;;;8.86;80.13;100657.03;1085038;54;20039;-77
2022/03/16 00:03:24;;;;;;;28.98;23.48;;;;;;;8.87;80.18;100653.38;1085158;54;20047;-77
2022/03/16 00:04:30;;;;;;;28.73;23.40;;;;;;;8.87;80.02;100648.91;1085538;46;20046;-76
2022/03/16 00:05:31;;;;;;;30.65;24.08;;;;;;;8.85;80.25;100650.84;1084996;54;20042;-77
2022/03/16 00:06:35;;;;;;;27.17;22.98;;;;;;;8.86;79.93;100651.69;1084868;54;20039;-77
2022/03/16 00:07:37;;;;;;;28.95;22.58;;;;;;;8.84;80.23;100657.16;1084651;54;20042;-77
2022/03/16 00:08:41;;;;;;;33.10;24.30;;;;;;;8.83;80.28;100654.63;1084630;54;20065;-77
2022/03/16 00:09:43;;;;;;;27.17;21.98;;;;;;;8.88;80.08;100661.25;1084639;54;20061;-77
2022/03/16 00:10:47;;;;;;;26.92;20.88;;;;;;;8.94;80.27;100656.44;1084678;54;20065;-77
2022/03/16 00:11:48;;;;;;;28.17;22.77;;;;;;;8.92;80.05;100650.38;1083939;54;20038;-77
2022/03/16 00:12:55;;;;;;;25.83;21.48;;;;;;;8.94;80.03;100651.09;1084449;54;20042;-77
2022/03/16 00:13:57;;;;;;;25.63;21.15;;;;;;;8.94;79.95;100657.28;1084450;54;20039;-77
2022/03/16 00:15:01;;;;;;;26.50;21.98;;;;;;;8.88;79.91;100645.25;1084547;54;20043;-77
2022/03/16 00:16:02;;;;;;;27.98;21.83;;;;;;;8.89;80.04;100646.97;1084657;54;20043;-77
2022/03/16 00:17:07;;;;;;;25.10;20.88;;;;;;;8.94;80.11;100646.59;1084758;54;20038;-77
2022/03/16 00:18:09;;;;;;;25.85;19.77;;;;;;;8.95;79.61;100647.47;1084671;54;20553;-77
2022/03/16 00:19:13;;;;;;;25.88;21.80;;;;;;;8.95;79.74;100650.13;1084940;54;21086;-77
2022/03/16 00:20:14;;;;;;;26.45;21.10;;;;;;;8.94;79.80;100643.09;1084652;54;20058;-77
2022/03/16 00:21:18;;;;;;;31.23;24.55;;;;;;;8.90;79.45;100638.00;1084918;54;20549;-77
2022/03/16 00:22:20;;;;;;;29.50;24.00;;;;;;;8.88;79.97;100634.59;1085010;54;20049;-77
2022/03/16 00:23:24;;;;;;;32.65;25.63;;;;;;;8.87;79.79;100635.59;1084862;54;20046;-78
2022/03/16 00:24:26;;;;;;;30.27;23.75;;;;;;;8.88;79.72;100639.09;1084773;54;20094;-77
2022/03/16 00:25:30;;;;;;;27.17;22.38;;;;;;;8.93;79.45;100646.72;1084880;54;20074;-77
2022/03/16 00:26:32;;;;;;;27.13;22.45;;;;;;;8.93;79.60;100646.72;1084892;54;20828;-77
2022/03/16 00:27:36;;;;;;;26.27;21.50;;;;;;;8.95;79.60;100652.81;1084653;54;20673;-78
2022/03/16 00:28:41;;;;;;;29.00;21.88;;;;;;;8.95;79.44;100645.63;1084592;54;20576;-78
2022/03/16 00:29:45;;;;;;;26.30;20.38;;;;;;;8.98;79.60;100640.06;1084676;54;20041;-78
2022/03/16 00:30:46;;;;;;;26.35;20.98;;;;;;;9.02;79.28;100641.50;1084847;54;20043;-77
2022/03/16 00:31:51;;;;;;;26.75;21.00;;;;;;;9.01;79.52;100649.66;1084816;54;20061;-78
2022/03/16 00:32:52;;;;;;;27.00;20.88;;;;;;;9.02;79.45;100649.50;1085303;39;20487;-78
2022/03/16 00:33:56;;;;;;;24.50;21.13;;;;;;;9.07;79.37;100654.50;1084915;54;20105;-78
2022/03/16 00:34:58;;;;;;;28.70;22.92;;;;;;;8.99;79.14;100644.44;1085022;54;20043;-80
2022/03/16 00:36:02;;;;;;;28.13;21.95;;;;;;;9.00;79.32;100651.47;1084691;54;20039;-79
2022/03/16 00:37:04;;;;;;;29.45;23.92;;;;;;;8.94;79.16;100648.44;1084794;54;20038;-78
2022/03/16 00:38:09;;;;;;;28.17;22.85;;;;;;;8.98;79.39;100641.88;1084691;54;20045;-78
2022/03/16 00:39:11;;;;;;;29.98;23.80;;;;;;;8.96;79.46;100644.66;1084647;54;20041;-79
2022/03/16 00:40:15;;;;;;;28.33;22.52;;;;;;;8.99;79.38;100651.56;1084852;54;20102;-78
2022/03/16 00:41:17;;;;;;;27.40;21.70;;;;;;;8.99;79.28;100648.91;1085963;39;20567;-78
2022/03/16 00:42:21;;;;;;;27.13;22.33;;;;;;;8.98;79.20;100653.41;1085017;54;20046;-77
2022/03/16 00:43:22;;;;;;;29.77;24.80;;;;;;;8.88;79.21;100647.94;1085015;54;20042;-77
2022/03/16 00:44:34;;;;;;;29.88;23.65;;;;;;;8.92;79.42;100645.91;1084374;54;20041;-78
2022/03/16 00:45:36;;;;;;;29.88;23.60;;;;;;;8.92;79.40;100651.22;1084917;54;20045;-78
2022/03/16 00:46:41;;;;;;;30.52;23.00;;;;;;;8.93;79.50;100652.91;1084943;54;20600;-78
2022/03/16 00:47:42;;;;;;;29.70;23.88;;;;;;;8.91;79.28;100654.88;1085072;54;20038;-79
2022/03/16 00:48:46;;;;;;;27.52;22.25;;;;;;;8.94;79.05;100659.09;1085623;54;20042;-78
2022/03/16 00:49:48;;;;;;;27.88;22.85;;;;;;;8.92;79.20;100656.56;1087252;54;20038;-78
2022/03/16 00:50:52;;;;;;;26.20;22.70;;;;;;;8.89;79.15;100662.97;1087702;54;20019;-78
2022/03/16 00:51:54;;;;;;;29.55;24.15;;;;;;;8.83;79.53;100658.13;1088308;47;20031;-77
2022/03/16 00:52:58;;;;;;;33.65;25.02;;;;;;;8.81;79.61;100660.03;1087426;54;20038;-77
2022/03/16 00:53:59;;;;;;;30.05;23.13;;;;;;;8.87;79.59;100661.38;1086369;54;20049;-78
2022/03/16 00:55:06;;;;;;;29.08;22.48;;;;;;;8.88;79.56;100663.94;1085915;54;20040;-77
2022/03/16 00:56:08;;;;;;;27.90;22.60;;;;;;;8.88;79.48;100663.94;1086084;54;20042;-78
2022/03/16 00:57:13;;;;;;;25.50;20.92;;;;;;;8.90;79.38;100661.16;1086237;54;20060;-78
2022/03/16 00:58:14;;;;;;;28.13;22.00;;;;;;;8.90;79.41;100667.31;1086898;54;20058;-78
2022/03/16 00:59:18;;;;;;;28.95;22.23;;;;;;;8.93;79.57;100662.72;1085712;54;20054;-77
2022/03/16 01:00:22;;;;;;;29.77;23.52;;;;;;;8.86;79.53;100657.88;1085005;54;20043;-77
2022/03/16 01:01:27;;;;;;;28.50;22.17;;;;;;;8.87;79.51;100661.38;1084629;54;20039;-78
2022/03/16 01:02:28;;;;;;;29.15;23.90;;;;;;;8.85;79.49;100663.31;1086470;39;20594;-78
2022/03/16 01:03:32;;;;;;;29.77;23.27;;;;;;;8.87;79.42;100664.06;1084785;54;20050;-78
2022/03/16 01:04:34;;;;;;;26.50;21.05;;;;;;;8.91;79.28;100662.88;1085151;54;20039;-78
2022/03/16 01:05:38;;;;;;;26.20;21.15;;;;;;;8.91;79.39;100660.19;1084801;54;20038;-78
2022/03/16 01:06:39;;;;;;;26.75;20.52;;;;;;;8.94;79.37;100665.28;1085141;54;20041;-78
2022/03/16 01:07:44;;;;;;;24.83;20.02;;;;;;;8.99;79.04;100659.56;1085175;54;20042;-78
2022/03/16 01:08:45;;;;;;;24.70;20.80;;;;;;;8.99;79.06;100662.25;1084839;54;20065;-78
2022/03/16 01:09:49;;;;;;;29.58;22.35;;;;;;;8.94;79.27;100659.09;1085029;54;20031;-79
2022/03/16 01:10:51;;;;;;;28.80;22.25;;;;;;;8.93;79.29;100662.72;1084834;54;20042;-78
2022/03/16 01:11:55;;;;;;;25.50;20.55;;;;;;;8.93;79.31;100655.56;1085243;47;20695;-78
2022/03/16 01:12:57;;;;;;;29.10;21.10;;;;;;;8.90;79.64;100656.66;1084773;54;20043;-78
2022/03/16 01:14:01;;;;;;;26.42;21.95;;;;;;;8.87;79.67;100654.25;1084783;54;20043;-78
2022/03/16 01:15:04;;;;;;;25.70;21.85;;;;;;;8.89;79.71;100662.13;1085649;54;20034;-78
2022/03/16 01:16:12;;;;;;;27.60;22.42;;;;;;;8.86;79.61;100663.22;1085715;54;20042;-79
2022/03/16 01:17:13;;;;;;;25.23;19.77;;;;;;;8.89;79.48;100662.13;1085700;54;20062;-78
2022/03/16 01:18:18;;;;;;;27.77;21.90;;;;;;;8.88;79.69;100666.59;1084966;54;20079;-79
2022/03/16 01:19:19;;;;;;;25.80;20.48;;;;;;;8.90;79.41;100666.50;1085002;54;20048;-79
2022/03/16 01:20:24;;;;;;;24.88;19.65;;;;;;;8.93;79.38;100660.06;1086487;54;20038;-78
2022/03/16 01:21:26;;;;;;;27.13;22.80;;;;;;;8.84;79.81;100649.16;1087492;54;20041;-80
2022/03/16 01:22:30;;;;;;;28.75;22.40;;;;;;;8.85;79.71;100657.97;1087606;54;20026;-80
2022/03/16 01:23:34;;;;;;;29.15;22.60;;;;;;;8.83;79.47;100657.28;1087543;54;20043;-81
2022/03/16 01:24:38;;;;;;;28.63;23.92;;;;;;;8.73;79.92;100660.66;1088025;54;20034;-79
2022/03/16 01:25:41;;;;;;;27.90;21.67;;;;;;;8.74;80.19;100658.81;1087971;54;20608;-80
2022/03/16 01:26:45;;;;;;;25.85;21.73;;;;;;;8.77;79.98;100657.72;1093087;39;20504;-79
2022/03/16 01:27:47;;;;;;;27.23;23.23;;;;;;;8.70;80.09;100662.69;1086143;46;20053;-77
2022/03/16 01:28:51;;;;;;;26.42;21.85;;;;;;;8.72;80.36;100655.41;1086392;39;20460;-77
2022/03/16 01:29:52;;;;;;;27.63;23.40;;;;;;;8.71;80.30;100657.25;1086022;47;20038;-78
2022/03/16 01:30:57;;;;;;;26.70;21.52;;;;;;;8.74;80.03;100662.31;1085931;54;20035;-77
2022/03/16 01:32:02;;;;;;;25.48;21.00;;;;;;;8.76;80.07;100661.34;1086301;54;20054;-76
2022/03/16 01:33:06;;;;;;;27.05;22.20;;;;;;;8.76;80.29;100664.91;1086248;54;20058;-77
2022/03/16 01:34:08;;;;;;;25.50;21.67;;;;;;;8.73;80.25;100662.44;1086672;46;20026;-79
2022/03/16 01:35:14;;;;;;;28.30;23.52;;;;;;;8.69;80.41;100666.34;1085713;54;20035;-78
2022/03/16 01:36:15;;;;;;;28.75;23.90;;;;;;;8.63;80.98;100654.31;1085875;46;20035;-78
2022/03/16 01:37:26;;;;;;;28.52;24.38;;;;;;;8.57;81.22;100658.31;1086041;54;20038;-78
2022/03/16 01:38:28;;;;;;;27.92;23.20;;;;;;;8.57;81.13;100655.63;1086126;47;20575;-77
2022/03/16 01:39:34;;;;;;;27.13;22.55;;;;;;;8.62;81.16;100657.09;1085994;54;20030;-78
2022/03/16 01:40:38;;;;;;;27.75;22.27;;;;;;;8.65;80.91;100655.03;1085889;54;20068;-79
2022/03/16 01:41:42;;;;;;;26.25;21.70;;;;;;;8.66;80.99;100650.56;1085973;54;20573;-77
2022/03/16 01:42:46;;;;;;;29.05;22.70;;;;;;;8.64;81.16;100647.16;1086094;54;20061;-77
2022/03/16 01:43:52;;;;;;;30.33;24.20;;;;;;;8.59;81.06;100660.84;1085801;54;20046;-78
2022/03/16 01:44:58;;;;;;;29.08;24.33;;;;;;;8.53;81.12;100653.31;1085717;46;20583;-78
2022/03/16 01:46:01;;;;;;;33.72;26.60;;;;;;;8.49;81.55;100652.72;1086174;39;20553;-78
2022/03/16 01:47:08;;;;;;;30.65;23.77;;;;;;;8.42;81.85;100649.63;1086602;46;20557;-78
2022/03/16 01:48:09;;;;;;;30.70;24.75;;;;;;;8.39;81.66;100644.53;1085956;46;20598;-77
2022/03/16 01:49:13;;;;;;;28.30;24.50;;;;;;;8.37;81.33;100648.28;1085971;54;20038;-77
2022/03/16 01:50:15;;;;;;;28.40;23.45;;;;;;;8.36;81.45;100649.22;1085997;46;20038;-78
2022/03/16 01:51:23;;;;;;;28.42;22.80;;;;;;;8.31;81.03;100652.25;1085599;54;20037;-80
2022/03/16 01:52:27;;;;;;;28.30;23.45;;;;;;;8.33;81.19;100654.78;1085511;47;20038;-78
2022/03/16 01:53:32;;;;;;;25.67;21.77;;;;;;;8.43;81.12;100653.13;1087821;54;20034;-79
2022/03/16 01:54:34;;;;;;;26.52;22.05;;;;;;;8.41;80.67;100658.59;1087686;54;20567;-79
2022/03/16 01:55:38;;;;;;;26.70;23.27;;;;;;;8.40;80.87;100656.88;1087168;54;20027;-79
2022/03/16 01:56:40;;;;;;;28.10;23.58;;;;;;;8.34;80.91;100657.34;1086635;46;20029;-79
2022/03/16 01:57:48;;;;;;;27.83;22.20;;;;;;;8.40;80.49;100662.22;1085709;54;20100;-79
2022/03/16 01:58:49;;;;;;;25.23;21.63;;;;;;;8.37;80.65;100664.25;1085801;54;20030;-78
2022/03/16 01:59:54;;;;;;;26.67;23.00;;;;;;;8.33;80.54;100660.97;1086069;54;20080;-80
2022/03/16 02:00:56;;;;;;;25.67;22.13;;;;;;;8.35;80.50;100663.50;1087838;54;20034;-80
2022/03/16 02:02:00;;;;;;;24.17;21.17;;;;;;;8.36;80.30;100665.22;1087965;54;20038;-80
2022/03/16 02:03:07;;;;;;;25.63;22.00;;;;;;;8.32;80.58;100661.06;1087865;54;20062;-79
2022/03/16 02:04:11;;;;;;;28.48;22.77;;;;;;;8.31;80.80;100662.06;1088125;54;20027;-79
2022/03/16 02:05:16;;;;;;;24.27;21.60;;;;;;;8.35;80.49;100660.84;1088653;39;20487;-78
2022/03/16 02:06:18;;;;;;;28.27;23.10;;;;;;;8.28;80.55;100658.66;1087666;54;20023;-79
2022/03/16 02:07:22;;;;;;;24.75;20.67;;;;;;;8.36;80.51;100665.22;1088243;46;20018;-79
2022/03/16 02:08:27;;;;;;;24.85;20.92;;;;;;;8.31;80.51;100662.06;1089901;46;20583;-79
2022/03/16 02:09:32;;;;;;;30.02;25.02;;;;;;;8.26;80.76;100659.75;1095963;46;20062;-80
2022/03/16 02:10:45;;;;;;;26.98;22.23;;;;;;;8.26;80.90;100657.09;1088193;54;20054;-78
2022/03/16 02:11:47;;;;;;;25.83;22.65;;;;;;;8.28;80.92;100653.34;1087646;54;20035;-80
2022/03/16 02:12:55;;;;;;;27.00;22.73;;;;;;;8.28;80.90;100658.66;1087207;54;20591;-79
2022/03/16 02:13:57;;;;;;;26.65;23.20;;;;;;;8.25;80.96;100653.56;1087709;46;20102;-79
2022/03/16 02:15:02;;;;;;;24.60;20.58;;;;;;;8.31;80.73;100664.72;1087900;54;20010;-80
2022/03/16 02:16:04;;;;;;;26.42;21.98;;;;;;;8.31;80.57;100660.22;1087981;54;20034;-80
2022/03/16 02:17:08;;;;;;;26.80;23.17;;;;;;;8.31;80.79;100662.06;1087958;54;20034;-80
2022/03/16 02:18:15;;;;;;;25.10;20.77;;;;;;;8.31;80.60;100656.72;1087968;54;20038;-79
2022/03/16 02:19:17;;;;;;;27.77;23.45;;;;;;;8.31;80.48;100662.06;1089673;39;20535;-80
2022/03/16 02:20:23;;;;;;;27.75;23.45;;;;;;;8.30;80.52;100661.19;1089173;46;20049;-79
2022/03/16 02:21:25;;;;;;;29.48;23.05;;;;;;;8.27;80.45;100662.28;1087888;54;20033;-79
2022/03/16 02:22:33;;;;;;;27.80;23.13;;;;;;;8.21;79.85;100661.88;1087854;54;20019;-78
2022/03/16 02:23:37;;;;;;;29.95;23.45;;;;;;;8.18;79.83;100665.63;1090455;39;20497;-81
2022/03/16 02:24:41;;;;;;;28.20;23.38;;;;;;;8.13;80.11;100662.44;1087824;54;20035;-81
2022/03/16 02:25:53;;;;;;;26.90;22.60;;;;;;;8.09;79.95;100659.16;1087950;54;20038;-80
2022/03/16 02:26:54;;;;;;;28.55;23.08;;;;;;;8.14;80.22;100666.81;1087823;54;20034;-80
2022/03/16 02:27:59;;;;;;;25.60;21.33;;;;;;;8.15;79.98;100662.34;1091235;39;20504;-81
2022/03/16 02:29:01;;;;;;;27.15;21.55;;;;;;;8.14;79.87;100658.81;1088859;46;20045;-81
2022/03/16 02:30:06;;;;;;;25.65;21.27;;;;;;;8.17;79.87;100666.59;1087619;54;20027;-80
2022/03/16 02:31:07;;;;;;;25.75;20.60;;;;;;;8.25;79.48;100658.03;1087881;54;20026;-81
2022/03/16 02:32:12;;;;;;;26.88;22.13;;;;;;;8.22;79.56;100655.59;1087792;54;20034;-78
2022/03/16 02:33:14;;;;;;;26.15;20.77;;;;;;;8.26;79.37;100655.25;1087958;54;20061;-78
2022/03/16 02:34:18;;;;;;;24.60;20.10;;;;;;;8.31;79.17;100656.72;1087759;54;20082;-79
2022/03/16 02:35:21;;;;;;;22.80;19.75;;;;;;;8.30;78.99;100661.19;1089257;39;20451;-78
2022/03/16 02:36:25;;;;;;;23.13;19.23;;;;;;;8.34;78.71;100656.47;1087912;54;20023;-80
2022/03/16 02:37:27;;;;;;;21.60;18.17;;;;;;;8.35;78.71;100658.19;1088273;39;20448;-81
2022/03/16 02:38:31;;;;;;;26.25;20.75;;;;;;;8.36;78.61;100657.22;1087951;54;20046;-80
2022/03/16 02:39:35;;;;;;;26.80;21.85;;;;;;;8.27;78.20;100656.09;1087664;54;20042;-81
2022/03/16 02:40:39;;;;;;;26.30;21.42;;;;;;;8.27;78.23;100662.28;1087516;54;20038;-79
2022/03/16 02:41:41;;;;;;;23.95;20.25;;;;;;;8.29;78.03;100656.84;1087692;54;20031;-80
2022/03/16 02:42:48;;;;;;;25.60;21.73;;;;;;;8.25;77.56;100664.19;1088022;54;20034;-79
2022/03/16 02:43:50;;;;;;;24.30;20.25;;;;;;;8.27;78.08;100672.94;1088038;54;20042;-80
2022/03/16 02:44:54;;;;;;;24.40;20.15;;;;;;;8.27;77.77;100669.41;1087721;54;20027;-79
2022/03/16 02:45:56;;;;;;;27.08;22.48;;;;;;;8.19;77.62;100669.13;1087185;46;20030;-79
2022/03/16 02:47:00;;;;;;;26.58;22.77;;;;;;;8.17;77.64;100665.75;1087819;54;20041;-80
2022/03/16 02:48:04;;;;;;;28.27;23.13;;;;;;;8.15;77.37;100671.19;1088679;39;20465;-79
2022/03/16 02:49:06;;;;;;;25.58;21.13;;;;;;;8.10;77.40;100670.69;1087994;54;20022;-79
2022/03/16 02:50:12;;;;;;;28.13;22.75;;;;;;;8.09;77.47;100664.50;1087773;54;20610;-81
2022/03/16 02:51:14;;;;;;;27.27;22.02;;;;;;;8.06;77.90;100671.84;1088547;39;20464;-79
2022/03/16 02:52:18;;;;;;;29.90;23.65;;;;;;;8.04;77.56;100673.78;1087840;54;20033;-79
2022/03/16 02:53:19;;;;;;;26.90;22.42;;;;;;;7.96;77.93;100672.53;1087738;54;20042;-79
2022/03/16 02:54:24;;;;;;;26.48;22.48;;;;;;;7.94;77.96;100670.97;1089601;46;20568;-79
2022/03/16 02:55:28;;;;;;;28.63;23.77;;;;;;;7.91;77.76;100672.03;1088012;54;20039;-80
2022/03/16 02:56:32;;;;;;;27.25;23.23;;;;;;;7.92;78.02;100679.06;1088360;39;20444;-81
2022/03/16 02:57:34;;;;;;;27.80;22.15;;;;;;;7.96;78.08;100677.88;1087738;54;20038;-80
2022/03/16 02:58:39;;;;;;;28.08;23.55;;;;;;;7.88;78.13;100676.75;1087611;54;20372;-81
2022/03/16 02:59:40;;;;;;;28.63;24.20;;;;;;;7.87;78.33;100675.88;1085682;54;20042;-80
2022/03/16 03:00:45;;;;;;;27.35;22.92;;;;;;;7.84;78.30;100678.75;1085113;54;20041;-79
2022/03/16 03:01:51;;;;;;;28.48;23.02;;;;;;;7.88;78.43;100674.06;1085379;54;20109;-77
2022/03/16 03:02:53;;;;;;;28.02;23.27;;;;;;;7.82;78.48;100675.38;1087850;39;20477;-78
2022/03/16 03:03:59;;;;;;;28.77;24.27;;;;;;;7.78;78.47;100677.41;1086112;54;20034;-77
2022/03/16 03:05:01;;;;;;;30.85;24.40;;;;;;;7.73;78.59;100684.03;1086428;54;20033;-79
2022/03/16 03:06:05;;;;;;;29.23;23.60;;;;;;;7.69;79.01;100677.22;1086242;54;20034;-80
2022/03/16 03:07:07;;;;;;;29.13;23.77;;;;;;;7.60;79.00;100678.75;1086478;39;20413;-79
2022/03/16 03:08:11;;;;;;;30.08;25.40;;;;;;;7.57;79.36;100671.81;1086556;39;20541;-79
2022/03/16 03:09:13;;;;;;;30.45;24.23;;;;;;;7.54;79.61;100677.38;1086326;54;20035;-80
2022/03/16 03:10:17;;;;;;;31.35;25.33;;;;;;;7.55;79.48;100676.41;1086389;54;20035;-77
2022/03/16 03:11:40;;;;;;;30.55;25.38;;;;;;;7.50;79.87;100678.53;1086373;54;20572;-78
2022/03/16 03:14:16;;;;;;;31.83;24.88;;;;;;;7.40;80.29;100672.16;1087577;46;20043;-79
2022/03/16 03:17:15;;;;;;;30.40;24.17;;;;;;;7.40;80.44;100678.34;1086812;54;20100;-79
2022/03/16 03:18:35;;;;;;;31.13;24.10;;;;;;;7.47;80.28;100673.41;1087329;54;20063;-79
2022/03/16 03:19:48;;;;;;;;;;;;;;;;;;;;;
2022/03/16 03:21:23;;;;;;;28.92;22.55;;;;;;;7.52;79.79;100673.09;1087008;54;19968;-78
2022/03/16 03:23:24;;;;;;;30.45;24.25;;;;;;;7.42;80.32;100672.91;1089605;39;20501;-79
2022/03/16 03:24:36;;;;;;;28.65;23.55;;;;;;;7.43;79.96;100672.78;1088577;46;20968;-82
2022/03/16 03:25:40;;;;;;;31.90;24.52;;;;;;;7.44;79.95;100679.81;1088070;54;20019;-80
2022/03/16 03:32:44;;;;;;;32.13;24.20;;;;;;;7.39;79.06;100689.06;1088165;54;20148;-81
2022/03/16 03:34:23;;;;;;;33.28;24.70;;;;;;;7.31;79.57;100685.16;1087613;54;20026;-81
2022/03/16 03:35:24;;;;;;;32.40;26.15;;;;;;;7.33;79.45;100690.34;1087611;54;20017;-81
2022/03/16 03:36:29;;;;;;;33.97;25.83;;;;;;;7.28;79.51;100685.38;1087493;54;20025;-80
2022/03/16 03:37:31;;;;;;;33.45;26.67;;;;;;;7.33;79.23;100688.56;1086957;54;20034;-79
2022/03/16 03:39:06;;;;;;;29.30;23.83;;;;;;;7.36;79.15;100692.81;1087500;54;20033;-79
2022/03/16 03:40:08;;;;;;;30.20;24.55;;;;;;;7.40;79.33;100693.44;1087854;54;20019;-81
2022/03/16 03:41:43;;;;;;;31.55;24.92;;;;;;;7.33;79.32;100693.00;1088010;54;20086;-79
2022/03/16 03:42:47;;;;;;;30.52;24.48;;;;;;;7.33;79.07;100687.69;1088046;54;20082;-79
2022/03/16 03:43:52;;;;;;;30.17;25.10;;;;;;;7.26;79.65;100695.28;1093349;46;20034;-81
2022/03/16 03:44:53;;;;;;;30.88;25.45;;;;;;;7.30;79.07;100695.91;1090038;46;20039;-79
2022/03/16 03:46:32;;;;;;;32.35;25.23;;;;;;;7.25;78.88;100701.56;1090019;39;20429;-79
2022/03/16 03:49:07;;;;;;;28.55;24.05;;;;;;;7.24;79.01;100697.19;1088350;54;20029;-80
2022/03/16 03:50:09;;;;;;;30.70;25.63;;;;;;;7.24;78.99;100697.19;1088432;54;20042;-79
2022/03/16 03:51:13;;;;;;;30.73;26.23;;;;;;;7.23;79.02;100695.47;1088825;46;20019;-78
2022/03/16 03:52:15;;;;;;;30.40;25.23;;;;;;;7.24;78.56;100702.50;1087502;46;20027;-79
2022/03/16 03:53:19;;;;;;;30.08;25.33;;;;;;;7.24;78.82;100697.19;1087694;46;20034;-78
2022/03/16 03:54:21;;;;;;;31.63;24.75;;;;;;;7.22;78.33;100696.44;1089611;46;20564;-79
2022/03/16 03:55:25;;;;;;;28.88;24.15;;;;;;;7.25;78.84;100706.88;1087158;54;20042;-78
2022/03/16 03:56:27;;;;;;;29.63;24.52;;;;;;;7.22;78.62;100701.75;1087059;54;20042;-79
2022/03/16 03:57:31;;;;;;;28.67;24.25;;;;;;;7.24;78.42;100689.22;1088063;39;20421;-79
2022/03/16 03:58:35;;;;;;;28.02;23.48;;;;;;;7.24;78.48;100705.16;1086916;54;20042;-78
2022/03/16 03:59:46;;;;;;;30.60;24.55;;;;;;;7.18;78.11;100705.56;1086062;46;20026;-78
2022/03/16 04:00:49;;;;;;;31.08;25.42;;;;;;;7.17;78.32;100712.72;1085805;47;20054;-78
2022/03/16 04:01:55;;;;;;;30.23;26.35;;;;;;;7.18;78.45;100711.75;1085825;54;20038;-79
2022/03/16 04:02:56;;;;;;;30.65;25.90;;;;;;;7.18;78.79;100708.22;1088784;46;20039;-79
2022/03/16 04:04:00;;;;;;;28.75;24.58;;;;;;;7.20;78.61;100710.81;1088313;54;20065;-81
2022/03/16 04:05:09;;;;;;;28.65;24.02;;;;;;;7.18;78.35;100710.91;1088354;54;20011;-81
2022/03/16 04:06:14;;;;;;;30.83;25.13;;;;;;;7.11;78.31;100706.97;1088118;54;20079;-81
2022/03/16 04:07:16;;;;;;;31.20;24.42;;;;;;;7.15;78.52;100711.13;1089191;46;20064;-80
2022/03/16 04:08:20;;;;;;;27.95;23.55;;;;;;;7.20;78.38;100718.78;1088148;54;20038;-80
2022/03/16 04:09:22;;;;;;;29.60;24.90;;;;;;;7.21;77.91;100715.16;1088270;46;20047;-80
2022/03/16 04:10:39;;;;;;;29.95;24.58;;;;;;;7.13;77.88;100721.00;1088028;54;20014;-80
2022/03/16 04:11:40;;;;;;;28.92;24.17;;;;;;;7.06;77.96;100723.25;1088072;47;20030;-80
2022/03/16 04:12:48;;;;;;;30.88;25.05;;;;;;;7.00;77.91;100723.66;1087440;54;20034;-78
2022/03/16 04:13:52;;;;;;;29.83;25.15;;;;;;;6.98;78.01;100723.78;1087521;54;20040;-79
2022/03/16 04:15:01;;;;;;;29.50;24.50;;;;;;;6.93;77.98;100725.06;1087300;54;20726;-79
2022/03/16 04:16:03;;;;;;;29.05;22.95;;;;;;;6.93;78.05;100731.19;1087453;54;20026;-80
2022/03/16 04:17:15;;;;;;;26.50;23.30;;;;;;;7.02;77.66;100729.75;1087396;54;20061;-80
2022/03/16 04:18:16;;;;;;;27.80;23.40;;;;;;;6.99;77.66;100735.25;1086586;54;20074;-79
2022/03/16 04:19:20;;;;;;;26.45;23.17;;;;;;;7.02;77.60;100732.41;1086663;54;20027;-79
2022/03/16 04:20:22;;;;;;;28.35;23.85;;;;;;;7.04;77.55;100733.13;1086459;54;20026;-79
2022/03/16 04:21:28;;;;;;;27.88;24.13;;;;;;;6.99;77.49;100730.78;1087070;46;20026;-80
2022/03/16 04:22:29;;;;;;;29.42;25.17;;;;;;;7.00;77.65;100732.47;1087049;39;20499;-80
2022/03/16 04:23:34;;;;;;;29.75;26.17;;;;;;;6.93;77.90;100725.06;1086757;46;20557;-80
2022/03/16 04:24:35;;;;;;;32.60;25.58;;;;;;;6.85;77.83;100730.88;1086855;54;20035;-80
2022/03/16 04:25:39;;;;;;;27.42;24.13;;;;;;;6.85;78.17;100730.88;1086291;54;20041;-80
2022/03/16 04:26:41;;;;;;;29.48;24.15;;;;;;;6.86;78.12;100732.59;1086801;47;20085;-79
2022/03/16 04:27:45;;;;;;;27.98;24.33;;;;;;;6.94;78.07;100727.59;1086594;54;20042;-78
2022/03/16 04:28:46;;;;;;;26.13;22.45;;;;;;;6.94;77.59;100737.38;1086507;54;20038;-78
2022/03/16 04:29:53;;;;;;;28.63;24.13;;;;;;;6.95;77.71;100736.41;1086571;54;20065;-80
2022/03/16 04:30:55;;;;;;;27.83;22.77;;;;;;;6.98;77.60;100741.53;1086516;54;20046;-80
2022/03/16 04:31:59;;;;;;;26.17;22.38;;;;;;;7.01;77.46;100736.84;1086644;54;20049;-79
2022/03/16 04:33:01;;;;;;;29.88;25.40;;;;;;;6.97;77.24;100738.03;1086398;54;20097;-79
2022/03/16 04:34:12;;;;;;;29.73;24.80;;;;;;;6.92;77.35;100737.47;1086346;54;20065;-80
2022/03/16 04:35:14;;;;;;;29.35;24.23;;;;;;;6.91;77.56;100740.25;1087283;46;20038;-79
2022/03/16 04:36:18;;;;;;;28.80;24.25;;;;;;;6.86;77.46;100735.25;1087469;39;20546;-78
2022/03/16 04:37:20;;;;;;;30.00;25.55;;;;;;;6.86;77.20;100737.91;1086433;54;20049;-78
2022/03/16 04:38:24;;;;;;;27.73;24.40;;;;;;;6.87;77.51;100739.59;1086776;54;20045;-79
2022/03/16 04:39:25;;;;;;;27.55;24.00;;;;;;;6.85;77.53;100737.03;1087131;39;20485;-79
2022/03/16 04:40:29;;;;;;;29.70;23.73;;;;;;;6.87;77.71;100735.13;1087153;47;20042;-79
2022/03/16 04:41:32;;;;;;;28.10;23.42;;;;;;;6.81;77.52;100730.25;1086660;54;20038;-79
2022/03/16 04:42:37;;;;;;;29.77;25.10;;;;;;;6.81;77.43;100732.91;1087488;39;20484;-78
2022/03/16 04:43:47;;;;;;;29.27;24.33;;;;;;;6.77;77.83;100731.38;1085475;54;20133;-79
2022/03/16 04:45:00;;;;;;;31.60;25.60;;;;;;;6.74;77.71;100736.06;1086551;31;20498;-79
2022/03/16 04:46:05;;;;;;;29.65;24.67;;;;;;;6.81;77.56;100729.38;1085352;54;20043;-80
2022/03/16 04:47:09;;;;;;;30.17;24.58;;;;;;;6.78;77.56;100727.78;1085080;54;20022;-80
2022/03/16 04:50:51;;;;;;;29.38;24.08;;;;;;;6.67;77.94;100733.81;1088221;47;20050;-78
2022/03/16 04:51:52;;;;;;;28.92;23.38;;;;;;;6.66;78.12;100744.56;1085915;54;20023;-79
2022/03/16 04:53:03;;;;;;;28.60;24.45;;;;;;;6.65;77.95;100735.72;1086051;54;20038;-78
2022/03/16 04:54:05;;;;;;;28.10;24.20;;;;;;;6.67;77.96;100739.13;1085896;54;20038;-79
2022/03/16 04:55:17;;;;;;;31.92;25.35;;;;;;;6.69;77.86;100737.25;1086192;54;20057;-80
2022/03/16 04:56:19;;;;;;;30.75;25.33;;;;;;;6.69;77.94;100731.91;1086438;54;20107;-79
2022/03/16 04:57:23;;;;;;;29.20;25.17;;;;;;;6.70;77.82;100738.94;1086003;54;20026;-77
2022/03/16 04:58:27;;;;;;;30.42;24.77;;;;;;;6.71;78.03;100734.47;1086861;39;20519;-78
2022/03/16 04:59:29;;;;;;;30.52;24.55;;;;;;;6.70;77.95;100736.28;1086357;54;20038;-78
2022/03/16 05:00:37;;;;;;;29.10;24.88;;;;;;;6.70;77.69;100738.06;1086323;54;20027;-80
2022/03/16 05:01:38;;;;;;;27.95;23.38;;;;;;;6.71;77.81;100739.78;1086481;54;20045;-79
2022/03/16 05:02:49;;;;;;;28.65;24.17;;;;;;;6.75;77.67;100745.75;1086241;54;20026;-80
2022/03/16 05:03:53;;;;;;;30.00;24.75;;;;;;;6.68;77.48;100738.19;1086990;39;20468;-81
2022/03/16 05:04:55;;;;;;;28.40;23.35;;;;;;;6.68;77.50;100738.19;1087206;54;20046;-79
2022/03/16 05:06:06;;;;;;;27.90;23.00;;;;;;;6.75;77.41;100737.75;1087799;39;20387;-80
2022/03/16 05:07:08;;;;;;;27.77;23.38;;;;;;;6.76;77.35;100737.66;1087511;54;20571;-81
2022/03/16 05:08:13;;;;;;;25.70;21.92;;;;;;;6.83;77.27;100736.31;1087156;54;20098;-79
2022/03/16 05:09:15;;;;;;;28.17;23.20;;;;;;;6.84;76.96;100735.34;1087187;54;20626;-78
2022/03/16 05:10:19;;;;;;;28.48;23.42;;;;;;;6.78;77.28;100734.91;1087120;54;20118;-78
2022/03/16 05:11:22;;;;;;;27.92;24.27;;;;;;;6.80;77.29;100739.16;1087060;54;20033;-79
2022/03/16 05:12:27;;;;;;;28.48;23.45;;;;;;;6.80;77.13;100722.38;1087058;54;20137;-80